sensor_id;sensor_type;location;lat;lon;timestamp;pressure;altitude;pressure_sealevel;temperature;humidity
11038;BME280;5572;49.540;11.932;2023-04-20T05:00:30;96716.66;;;0.72;100.00
11038;BME280;5572;49.540;11.932;2023-04-20T05:39:21;96554.63;;;8.57;100.00
11038;BME280;5572;49.540;11.932;2023-04-20T05:41:48;96534.16;;;9.00;100.00
11038;BME280;5572;49.540;11.932;2023-04-20T05:44:14;96530.81;;;8.74;100.00
11038;BME280;5572;49.540;11.932;2023-04-20T05:46:41;96516.44;;;8.46;100.00
11038;BME280;5572;49.540;11.932;2023-04-20T05:49:07;96522.88;;;7.67;100.00
11038;BME280;5572;49.540;11.932;2023-04-20T05:51:34;96498.13;;;8.48;100.00
11038;BME280;5572;49.540;11.932;2023-04-20T05:54:01;96547.03;;;6.77;100.00
11038;BME280;5572;49.540;11.932;2023-04-20T05:59:05;96503.63;;;8.18;100.00
11038;BME280;5572;49.540;11.932;2023-04-20T06:42:56;96567.09;;;5.94;100.00
11038;BME280;5572;49.540;11.932;2023-04-20T06:45:22;96524.22;;;6.89;100.00
11038;BME280;5572;49.540;11.932;2023-04-20T06:47:49;96522.00;;;7.91;100.00
11038;BME280;5572;49.540;11.932;2023-04-20T06:50:15;96512.84;;;8.60;100.00
11038;BME280;5572;49.540;11.932;2023-04-20T06:52:42;96558.78;;;5.95;100.00
11038;BME280;5572;49.540;11.932;2023-04-20T06:55:10;96570.00;;;5.51;100.00
11038;BME280;5572;49.540;11.932;2023-04-20T06:57:37;96524.59;;;6.22;100.00
11038;BME280;5572;49.540;11.932;2023-04-20T07:00:07;96539.97;;;6.51;100.00
11038;BME280;5572;49.540;11.932;2023-04-20T07:02:41;96567.72;;;5.33;100.00
11038;BME280;5572;49.540;11.932;2023-04-20T07:05:08;96541.81;;;6.31;100.00
11038;BME280;5572;49.540;11.932;2023-04-20T07:07:38;96552.78;;;6.24;100.00
11038;BME280;5572;49.540;11.932;2023-04-20T07:10:06;96572.31;;;5.69;100.00
11038;BME280;5572;49.540;11.932;2023-04-20T07:12:33;96540.84;;;5.96;100.00
11038;BME280;5572;49.540;11.932;2023-04-20T07:15:01;96549.44;;;6.02;100.00
11038;BME280;5572;49.540;11.932;2023-04-20T07:17:30;96538.38;;;6.50;100.00
11038;BME280;5572;49.540;11.932;2023-04-20T07:19:57;96552.09;;;6.59;100.00
11038;BME280;5572;49.540;11.932;2023-04-20T07:22:30;96586.84;;;5.41;100.00
11038;BME280;5572;49.540;11.932;2023-04-20T07:24:58;96547.97;;;6.26;100.00
11038;BME280;5572;49.540;11.932;2023-04-20T07:27:25;96560.38;;;6.47;100.00
11038;BME280;5572;49.540;11.932;2023-04-20T07:29:54;96558.00;;;6.66;100.00
11038;BME280;5572;49.540;11.932;2023-04-20T07:32:21;96599.06;;;5.64;100.00
11038;BME280;5572;49.540;11.932;2023-04-20T07:34:49;96574.22;;;6.19;100.00
11038;BME280;5572;49.540;11.932;2023-04-20T07:37:16;96579.38;;;6.36;100.00
11038;BME280;5572;49.540;11.932;2023-04-20T07:39:43;96604.66;;;5.89;100.00
11038;BME280;5572;49.540;11.932;2023-04-20T07:42:10;96556.41;;;6.65;100.00
11038;BME280;5572;49.540;11.932;2023-04-20T07:44:37;96593.19;;;6.03;100.00
11038;BME280;5572;49.540;11.932;2023-04-20T07:47:03;96564.00;;;6.92;100.00
11038;BME280;5572;49.540;11.932;2023-04-20T07:49:30;96609.94;;;5.79;100.00
11038;BME280;5572;49.540;11.932;2023-04-20T07:51:58;96614.72;;;5.45;100.00
11038;BME280;5572;49.540;11.932;2023-04-20T07:54:24;96587.75;;;6.44;100.00
11038;BME280;5572;49.540;11.932;2023-04-20T07:56:51;96602.75;;;5.89;100.00
11038;BME280;5572;49.540;11.932;2023-04-20T07:59:19;96581.34;;;6.60;100.00
11038;BME280;5572;49.540;11.932;2023-04-20T08:01:45;96605.38;;;6.25;100.00
11038;BME280;5572;49.540;11.932;2023-04-20T08:04:12;96569.91;;;6.89;100.00
11038;BME280;5572;49.540;11.932;2023-04-20T08:06:39;96576.28;;;6.64;100.00
11038;BME280;5572;49.540;11.932;2023-04-20T08:09:07;96587.28;;;6.57;100.00
11038;BME280;5572;49.540;11.932;2023-04-20T08:11:34;96615.97;;;6.00;100.00
11038;BME280;5572;49.540;11.932;2023-04-20T08:14:00;96594.19;;;6.43;100.00
11038;BME280;5572;49.540;11.932;2023-04-20T08:16:27;96585.97;;;6.75;100.00
11038;BME280;5572;49.540;11.932;2023-04-20T08:18:54;96615.38;;;5.89;100.00
11038;BME280;5572;49.540;11.932;2023-04-20T08:21:20;96612.88;;;6.23;100.00
11038;BME280;5572;49.540;11.932;2023-04-20T08:23:48;96625.69;;;5.75;100.00
11038;BME280;5572;49.540;11.932;2023-04-20T08:26:16;96612.09;;;6.23;100.00
11038;BME280;5572;49.540;11.932;2023-04-20T08:28:43;96602.31;;;6.07;100.00
11038;BME280;5572;49.540;11.932;2023-04-20T08:31:10;96605.44;;;5.94;100.00
11038;BME280;5572;49.540;11.932;2023-04-20T08:33:38;96598.63;;;6.18;100.00
11038;BME280;5572;49.540;11.932;2023-04-20T08:36:04;96607.41;;;6.03;100.00
11038;BME280;5572;49.540;11.932;2023-04-20T08:38:31;96608.06;;;5.79;100.00
11038;BME280;5572;49.540;11.932;2023-04-20T08:40:57;96587.19;;;6.37;100.00
11038;BME280;5572;49.540;11.932;2023-04-20T08:43:25;96580.91;;;6.83;100.00
11038;BME280;5572;49.540;11.932;2023-04-20T08:45:56;96584.31;;;6.54;100.00
11038;BME280;5572;49.540;11.932;2023-04-20T08:48:24;96609.69;;;6.26;100.00
11038;BME280;5572;49.540;11.932;2023-04-20T08:50:51;96602.09;;;6.08;100.00
11038;BME280;5572;49.540;11.932;2023-04-20T08:53:18;96591.50;;;6.38;100.00
11038;BME280;5572;49.540;11.932;2023-04-20T08:55:44;96597.88;;;6.27;100.00
11038;BME280;5572;49.540;11.932;2023-04-20T08:58:13;96584.25;;;6.39;100.00
11038;BME280;5572;49.540;11.932;2023-04-20T09:00:46;96605.06;;;6.12;100.00
11038;BME280;5572;49.540;11.932;2023-04-20T09:03:13;96592.22;;;6.24;100.00
11038;BME280;5572;49.540;11.932;2023-04-20T09:05:40;96573.34;;;6.75;100.00
11038;BME280;5572;49.540;11.932;2023-04-20T09:08:07;96543.31;;;6.88;100.00
11038;BME280;5572;49.540;11.932;2023-04-20T09:29:23;96584.66;;;6.82;100.00
11038;BME280;5572;49.540;11.932;2023-04-20T12:27:18;96447.28;;;8.79;100.00
11038;BME280;5572;49.540;11.932;2023-04-20T12:29:46;96477.53;;;8.66;100.00
11038;BME280;5572;49.540;11.932;2023-04-20T12:32:13;96451.34;;;9.38;100.00
11038;BME280;5572;49.540;11.932;2023-04-20T12:34:40;96470.00;;;9.02;100.00
11038;BME280;5572;49.540;11.932;2023-04-20T12:37:07;96483.88;;;8.42;100.00
11038;BME280;5572;49.540;11.932;2023-04-20T12:39:35;96461.91;;;9.02;100.00
11038;BME280;5572;49.540;11.932;2023-04-20T12:42:03;96427.03;;;9.43;100.00
11038;BME280;5572;49.540;11.932;2023-04-20T12:44:48;96417.41;;;10.08;100.00
11038;BME280;5572;49.540;11.932;2023-04-20T12:47:17;96444.53;;;9.46;100.00
11038;BME280;5572;49.540;11.932;2023-04-20T12:49:44;96426.81;;;10.10;100.00
11038;BME280;5572;49.540;11.932;2023-04-20T12:52:12;96470.31;;;8.95;100.00
11038;BME280;5572;49.540;11.932;2023-04-20T12:54:38;96430.88;;;9.38;100.00
11038;BME280;5572;49.540;11.932;2023-04-20T12:57:05;96425.06;;;9.49;100.00
11038;BME280;5572;49.540;11.932;2023-04-20T12:59:32;96415.34;;;10.00;100.00
11038;BME280;5572;49.540;11.932;2023-04-20T13:02:00;96422.47;;;9.67;100.00
11038;BME280;5572;49.540;11.932;2023-04-20T13:04:28;96428.25;;;9.79;100.00
11038;BME280;5572;49.540;11.932;2023-04-20T13:06:55;96424.63;;;9.65;100.00
11038;BME280;5572;49.540;11.932;2023-04-20T13:09:23;96424.53;;;9.99;100.00
11038;BME280;5572;49.540;11.932;2023-04-20T13:11:51;96424.19;;;9.82;100.00
11038;BME280;5572;49.540;11.932;2023-04-20T13:14:18;96440.34;;;9.58;100.00
11038;BME280;5572;49.540;11.932;2023-04-20T13:16:45;96417.16;;;10.46;100.00
11038;BME280;5572;49.540;11.932;2023-04-20T13:19:14;96425.94;;;9.68;100.00
11038;BME280;5572;49.540;11.932;2023-04-20T13:21:41;96430.91;;;9.61;100.00
11038;BME280;5572;49.540;11.932;2023-04-20T13:24:08;96397.22;;;10.60;100.00
11038;BME280;5572;49.540;11.932;2023-04-20T13:26:35;96416.66;;;10.02;100.00
11038;BME280;5572;49.540;11.932;2023-04-20T13:29:03;96394.06;;;10.72;100.00
11038;BME280;5572;49.540;11.932;2023-04-20T13:31:31;96416.94;;;10.42;100.00
11038;BME280;5572;49.540;11.932;2023-04-20T13:33:58;96419.78;;;10.32;100.00
11038;BME280;5572;49.540;11.932;2023-04-20T13:36:27;96403.94;;;10.44;100.00
11038;BME280;5572;49.540;11.932;2023-04-20T13:38:54;96430.66;;;9.81;100.00
11038;BME280;5572;49.540;11.932;2023-04-20T13:41:21;96412.03;;;10.44;100.00
11038;BME280;5572;49.540;11.932;2023-04-20T13:43:48;96424.09;;;10.52;100.00
11038;BME280;5572;49.540;11.932;2023-04-20T13:46:15;96416.03;;;11.02;100.00
11038;BME280;5572;49.540;11.932;2023-04-20T13:48:42;96447.50;;;9.73;100.00
11038;BME280;5572;49.540;11.932;2023-04-20T13:51:09;96413.97;;;10.94;100.00
11038;BME280;5572;49.540;11.932;2023-04-20T13:53:38;96412.31;;;10.98;100.00
11038;BME280;5572;49.540;11.932;2023-04-20T13:56:06;96427.53;;;10.57;100.00
11038;BME280;5572;49.540;11.932;2023-04-20T13:58:33;96405.63;;;11.41;100.00
11038;BME280;5572;49.540;11.932;2023-04-20T14:01:06;96444.59;;;10.34;100.00
11038;BME280;5572;49.540;11.932;2023-04-20T14:03:33;96449.84;;;9.79;100.00
11038;BME280;5572;49.540;11.932;2023-04-20T14:38:21;96558.03;;;9.54;100.00
11038;BME280;5572;49.540;11.932;2023-04-20T14:40:49;96562.25;;;9.99;100.00
11038;BME280;5572;49.540;11.932;2023-04-20T14:43:17;96568.94;;;10.29;100.00
11038;BME280;5572;49.540;11.932;2023-04-20T14:45:44;96552.19;;;10.51;100.00
11038;BME280;5572;49.540;11.932;2023-04-20T14:48:11;96589.94;;;9.47;100.00
11038;BME280;5572;49.540;11.932;2023-04-20T14:50:39;96546.34;;;10.44;100.00
11038;BME280;5572;49.540;11.932;2023-04-20T14:53:06;96577.47;;;9.85;100.00
11038;BME280;5572;49.540;11.932;2023-04-20T14:55:35;96565.19;;;9.69;100.00
11038;BME280;5572;49.540;11.932;2023-04-20T14:58:03;96583.84;;;9.65;100.00
11038;BME280;5572;49.540;11.932;2023-04-20T15:00:30;96557.22;;;9.54;100.00
11038;BME280;5572;49.540;11.932;2023-04-20T15:02:59;96553.34;;;9.65;100.00
11038;BME280;5572;49.540;11.932;2023-04-20T15:05:27;96564.44;;;9.63;100.00
11038;BME280;5572;49.540;11.932;2023-04-20T15:07:55;96558.91;;;10.07;100.00
11038;BME280;5572;49.540;11.932;2023-04-20T15:10:22;96561.81;;;10.15;100.00
11038;BME280;5572;49.540;11.932;2023-04-20T15:12:50;96569.34;;;9.85;100.00
11038;BME280;5572;49.540;11.932;2023-04-20T15:15:17;96577.06;;;10.01;100.00
11038;BME280;5572;49.540;11.932;2023-04-20T15:17:43;96558.25;;;10.20;100.00
11038;BME280;5572;49.540;11.932;2023-04-20T15:20:10;96546.34;;;10.21;100.00
11038;BME280;5572;49.540;11.932;2023-04-20T15:22:37;96553.53;;;10.07;100.00
11038;BME280;5572;49.540;11.932;2023-04-20T15:25:04;96562.81;;;10.19;100.00
11038;BME280;5572;49.540;11.932;2023-04-20T15:27:31;96528.06;;;10.59;100.00
11038;BME280;5572;49.540;11.932;2023-04-20T15:29:59;96556.06;;;10.22;100.00
11038;BME280;5572;49.540;11.932;2023-04-20T15:32:25;96552.91;;;9.86;100.00
11038;BME280;5572;49.540;11.932;2023-04-20T15:34:54;96542.19;;;9.76;100.00
11038;BME280;5572;49.540;11.932;2023-04-20T15:37:21;96550.38;;;9.95;100.00
11038;BME280;5572;49.540;11.932;2023-04-20T15:39:47;96519.72;;;10.09;100.00
11038;BME280;5572;49.540;11.932;2023-04-20T15:42:14;96534.44;;;9.70;100.00
11038;BME280;5572;49.540;11.932;2023-04-20T15:44:41;96518.41;;;9.78;100.00
11038;BME280;5572;49.540;11.932;2023-04-20T15:47:09;96526.56;;;9.73;100.00
11038;BME280;5572;49.540;11.932;2023-04-20T15:49:35;96529.41;;;9.87;100.00
11038;BME280;5572;49.540;11.932;2023-04-20T15:52:04;96517.25;;;9.61;100.00
11038;BME280;5572;49.540;11.932;2023-04-20T15:54:31;96503.44;;;9.91;100.00
11038;BME280;5572;49.540;11.932;2023-04-20T15:56:57;96480.03;;;10.10;100.00
11038;BME280;5572;49.540;11.932;2023-04-20T15:59:24;96506.47;;;9.84;100.00
11038;BME280;5572;49.540;11.932;2023-04-20T16:01:51;96503.22;;;9.87;100.00
11038;BME280;5572;49.540;11.932;2023-04-20T16:04:19;96474.41;;;10.06;100.00
11038;BME280;5572;49.540;11.932;2023-04-20T17:16:29;96378.91;;;9.74;100.00
11038;BME280;5572;49.540;11.932;2023-04-20T17:18:55;96369.56;;;9.90;100.00
11038;BME280;5572;49.540;11.932;2023-04-20T17:21:22;96369.09;;;9.83;100.00
11038;BME280;5572;49.540;11.932;2023-04-20T17:23:50;96351.00;;;9.83;100.00
11038;BME280;5572;49.540;11.932;2023-04-20T17:26:17;96335.97;;;9.77;100.00
11038;BME280;5572;49.540;11.932;2023-04-20T17:28:43;96341.38;;;9.77;100.00
11038;BME280;5572;49.540;11.932;2023-04-20T17:31:10;96327.97;;;9.91;100.00
11038;BME280;5572;49.540;11.932;2023-04-20T17:33:38;96337.91;;;9.95;100.00
11038;BME280;5572;49.540;11.932;2023-04-20T17:36:05;96329.47;;;9.78;100.00
11038;BME280;5572;49.540;11.932;2023-04-20T17:38:32;96333.53;;;9.76;100.00
11038;BME280;5572;49.540;11.932;2023-04-20T18:18:20;96231.56;;;9.13;100.00
11038;BME280;5572;49.540;11.932;2023-04-20T18:20:46;96216.44;;;9.17;100.00
11038;BME280;5572;49.540;11.932;2023-04-20T18:23:13;96217.34;;;9.07;100.00
11038;BME280;5572;49.540;11.932;2023-04-20T18:26:02;96211.38;;;9.10;100.00
11038;BME280;5572;49.540;11.932;2023-04-20T18:32:24;96207.59;;;9.11;100.00
11038;BME280;5572;49.540;11.932;2023-04-20T18:34:52;96198.41;;;8.89;100.00
11038;BME280;5572;49.540;11.932;2023-04-20T18:37:19;96195.13;;;8.97;100.00
11038;BME280;5572;49.540;11.932;2023-04-20T18:39:46;96189.59;;;9.07;100.00
11038;BME280;5572;49.540;11.932;2023-04-20T18:42:12;96189.38;;;9.03;100.00
11038;BME280;5572;49.540;11.932;2023-04-20T18:44:39;96187.72;;;8.84;100.00
11038;BME280;5572;49.540;11.932;2023-04-20T18:47:06;96186.09;;;8.83;100.00
11038;BME280;5572;49.540;11.932;2023-04-20T18:49:32;96175.72;;;8.95;100.00
11038;BME280;5572;49.540;11.932;2023-04-20T18:52:00;96173.56;;;8.97;100.00
11038;BME280;5572;49.540;11.932;2023-04-20T18:54:27;96176.06;;;8.88;100.00
11038;BME280;5572;49.540;11.932;2023-04-20T18:56:53;96170.78;;;9.02;100.00
11038;BME280;5572;49.540;11.932;2023-04-20T18:59:20;96174.72;;;9.09;100.00
11038;BME280;5572;49.540;11.932;2023-04-20T19:01:48;96178.25;;;8.86;100.00
11038;BME280;5572;49.540;11.932;2023-04-20T19:04:16;96172.59;;;8.88;100.00
11038;BME280;5572;49.540;11.932;2023-04-20T19:06:43;96166.34;;;9.11;100.00
11038;BME280;5572;49.540;11.932;2023-04-20T19:09:10;96163.13;;;8.90;100.00
11038;BME280;5572;49.540;11.932;2023-04-20T19:11:37;96171.34;;;8.75;100.00
11038;BME280;5572;49.540;11.932;2023-04-20T19:14:04;96174.53;;;8.82;100.00
11038;BME280;5572;49.540;11.932;2023-04-20T19:16:31;96178.59;;;8.80;100.00
11038;BME280;5572;49.540;11.932;2023-04-20T19:18:59;96178.41;;;8.95;100.00
11038;BME280;5572;49.540;11.932;2023-04-20T19:21:25;96180.66;;;8.88;100.00
11038;BME280;5572;49.540;11.932;2023-04-20T19:23:52;96176.59;;;8.90;100.00
11038;BME280;5572;49.540;11.932;2023-04-20T19:26:20;96183.47;;;8.78;100.00
11038;BME280;5572;49.540;11.932;2023-04-20T19:28:47;96186.31;;;8.86;100.00
11038;BME280;5572;49.540;11.932;2023-04-20T19:31:13;96178.94;;;8.97;100.00
11038;BME280;5572;49.540;11.932;2023-04-20T19:33:40;96188.28;;;8.81;100.00
11038;BME280;5572;49.540;11.932;2023-04-20T19:36:06;96193.66;;;8.81;100.00
11038;BME280;5572;49.540;11.932;2023-04-20T19:38:34;96188.69;;;8.69;100.00
11038;BME280;5572;49.540;11.932;2023-04-20T19:41:03;96193.31;;;8.64;100.00
11038;BME280;5572;49.540;11.932;2023-04-20T19:43:31;96190.84;;;8.67;100.00
11038;BME280;5572;49.540;11.932;2023-04-20T19:45:58;96190.63;;;8.87;100.00
11038;BME280;5572;49.540;11.932;2023-04-20T19:48:25;96190.53;;;8.74;100.00
11038;BME280;5572;49.540;11.932;2023-04-20T19:50:53;96185.88;;;8.79;100.00
11038;BME280;5572;49.540;11.932;2023-04-20T19:53:20;96195.03;;;8.55;100.00
11038;BME280;5572;49.540;11.932;2023-04-20T19:55:47;96192.81;;;8.62;100.00
11038;BME280;5572;49.540;11.932;2023-04-20T19:58:16;96189.59;;;8.60;100.00
11038;BME280;5572;49.540;11.932;2023-04-20T20:00:43;96188.69;;;8.69;100.00
11038;BME280;5572;49.540;11.932;2023-04-20T20:03:10;96193.31;;;8.64;100.00
11038;BME280;5572;49.540;11.932;2023-04-20T20:05:39;96184.41;;;8.63;100.00
11038;BME280;5572;49.540;11.932;2023-04-20T20:08:06;96174.50;;;8.59;100.00
11038;BME280;5572;49.540;11.932;2023-04-20T20:10:32;96186.13;;;8.54;100.00
11038;BME280;5572;49.540;11.932;2023-04-20T20:12:59;96193.97;;;8.79;100.00
11038;BME280;5572;49.540;11.932;2023-04-20T20:15:25;96204.94;;;8.88;100.00
11038;BME280;5572;49.540;11.932;2023-04-20T20:17:53;96202.03;;;8.79;100.00
11038;BME280;5572;49.540;11.932;2023-04-20T20:20:22;96202.34;;;8.78;100.00
11038;BME280;5572;49.540;11.932;2023-04-20T20:22:51;96210.16;;;8.51;100.00
11038;BME280;5572;49.540;11.932;2023-04-20T20:25:17;96210.25;;;8.69;100.00
11038;BME280;5572;49.540;11.932;2023-04-20T20:27:44;96184.16;;;8.65;100.00
11038;BME280;5572;49.540;11.932;2023-04-20T20:30:12;96168.34;;;8.58;100.00
11038;BME280;5572;49.540;11.932;2023-04-20T20:32:38;96172.19;;;8.76;100.00
11038;BME280;5572;49.540;11.932;2023-04-20T20:35:07;96176.22;;;8.73;100.00
11038;BME280;5572;49.540;11.932;2023-04-20T20:37:36;96171.84;;;8.82;100.00
11038;BME280;5572;49.540;11.932;2023-04-20T20:40:04;96179.84;;;8.64;100.00
11038;BME280;5572;49.540;11.932;2023-04-20T20:42:32;96181.50;;;8.60;100.00
11038;BME280;5572;49.540;11.932;2023-04-20T20:44:59;96189.34;;;8.56;100.00
11038;BME280;5572;49.540;11.932;2023-04-20T20:47:26;96195.78;;;8.37;100.00
11038;BME280;5572;49.540;11.932;2023-04-20T20:49:55;96197.50;;;8.23;100.00
11038;BME280;5572;49.540;11.932;2023-04-20T20:52:23;96193.41;;;8.31;100.00
11038;BME280;5572;49.540;11.932;2023-04-20T20:54:50;96192.78;;;8.39;100.00
11038;BME280;5572;49.540;11.932;2023-04-20T20:57:16;96192.81;;;8.34;100.00
11038;BME280;5572;49.540;11.932;2023-04-20T20:59:44;96193.97;;;8.28;100.00
11038;BME280;5572;49.540;11.932;2023-04-20T21:02:11;96188.19;;;8.39;100.00
11038;BME280;5572;49.540;11.932;2023-04-20T21:04:37;96187.63;;;8.42;100.00
11038;BME280;5572;49.540;11.932;2023-04-20T21:07:04;96204.53;;;8.19;100.00
11038;BME280;5572;49.540;11.932;2023-04-20T21:09:32;96166.63;;;8.39;100.00
11038;BME280;5572;49.540;11.932;2023-04-20T21:11:58;96171.78;;;8.36;100.00
11038;BME280;5572;49.540;11.932;2023-04-20T21:14:26;96168.25;;;8.40;100.00
11038;BME280;5572;49.540;11.932;2023-04-20T21:16:52;96164.25;;;8.38;100.00
11038;BME280;5572;49.540;11.932;2023-04-20T21:19:19;96173.47;;;8.32;100.00
11038;BME280;5572;49.540;11.932;2023-04-20T21:21:45;96171.38;;;8.24;100.00
11038;BME280;5572;49.540;11.932;2023-04-20T21:24:12;96158.19;;;8.51;100.00
11038;BME280;5572;49.540;11.932;2023-04-20T21:26:40;96164.81;;;8.35;100.00
11038;BME280;5572;49.540;11.932;2023-04-20T21:29:06;96172.94;;;8.30;100.00
11038;BME280;5572;49.540;11.932;2023-04-20T21:31:33;96169.47;;;8.53;100.00
11038;BME280;5572;49.540;11.932;2023-04-20T21:33:59;96177.25;;;8.31;100.00
11038;BME280;5572;49.540;11.932;2023-04-20T21:36:26;96162.03;;;8.16;100.00
11038;BME280;5572;49.540;11.932;2023-04-20T21:38:53;96156.47;;;8.36;100.00
11038;BME280;5572;49.540;11.932;2023-04-20T21:41:19;96157.25;;;8.37;100.00
11038;BME280;5572;49.540;11.932;2023-04-20T21:43:50;96174.41;;;8.17;100.00
11038;BME280;5572;49.540;11.932;2023-04-20T21:46:17;96160.09;;;8.22;100.00
11038;BME280;5572;49.540;11.932;2023-04-20T21:48:43;96166.06;;;8.14;100.00
11038;BME280;5572;49.540;11.932;2023-04-20T21:51:13;96165.25;;;8.13;100.00
11038;BME280;5572;49.540;11.932;2023-04-20T21:53:40;96165.31;;;8.08;100.00
11038;BME280;5572;49.540;11.932;2023-04-20T21:56:06;96159.94;;;8.08;100.00
11038;BME280;5572;49.540;11.932;2023-04-20T21:58:33;96170.28;;;7.91;100.00
11038;BME280;5572;49.540;11.932;2023-04-20T22:01:01;96173.88;;;7.82;100.00
11038;BME280;5572;49.540;11.932;2023-04-20T22:03:27;96179.19;;;7.92;100.00
11038;BME280;5572;49.540;11.932;2023-04-20T22:05:55;96184.75;;;8.00;100.00
11038;BME280;5572;49.540;11.932;2023-04-20T22:08:22;96180.59;;;7.84;100.00
11038;BME280;5572;49.540;11.932;2023-04-20T22:10:48;96192.66;;;7.87;100.00
11038;BME280;5572;49.540;11.932;2023-04-20T22:13:15;96181.34;;;7.90;100.00
11038;BME280;5572;49.540;11.932;2023-04-20T22:15:42;96189.13;;;7.91;100.00
11038;BME280;5572;49.540;11.932;2023-04-20T22:18:10;96189.56;;;8.03;100.00
11038;BME280;5572;49.540;11.932;2023-04-20T22:20:37;96217.94;;;7.91;100.00
11038;BME280;5572;49.540;11.932;2023-04-20T22:23:04;96208.28;;;7.85;100.00
11038;BME280;5572;49.540;11.932;2023-04-20T22:25:30;96215.28;;;7.86;100.00
11038;BME280;5572;49.540;11.932;2023-04-20T22:27:57;96214.16;;;7.92;100.00
11038;BME280;5572;49.540;11.932;2023-04-20T22:30:23;96210.88;;;8.00;100.00
11038;BME280;5572;49.540;11.932;2023-04-20T22:32:50;96195.28;;;7.97;100.00
11038;BME280;5572;49.540;11.932;2023-04-20T22:35:18;96194.03;;;8.23;100.00
11038;BME280;5572;49.540;11.932;2023-04-20T22:37:45;96196.97;;;8.21;100.00
11038;BME280;5572;49.540;11.932;2023-04-20T22:40:11;96203.59;;;8.00;100.00
11038;BME280;5572;49.540;11.932;2023-04-20T22:42:38;96207.56;;;8.08;100.00
11038;BME280;5572;49.540;11.932;2023-04-20T22:45:06;96216.94;;;7.82;100.00
11038;BME280;5572;49.540;11.932;2023-04-20T22:47:34;96208.78;;;7.92;100.00
11038;BME280;5572;49.540;11.932;2023-04-20T22:50:01;96221.00;;;7.74;100.00
11038;BME280;5572;49.540;11.932;2023-04-20T22:52:29;96215.50;;;7.89;100.00
11038;BME280;5572;49.540;11.932;2023-04-20T22:54:56;96220.38;;;7.87;100.00
11038;BME280;5572;49.540;11.932;2023-04-20T22:57:22;96222.75;;;7.94;100.00
11038;BME280;5572;49.540;11.932;2023-04-20T22:59:49;96223.00;;;7.97;100.00
11038;BME280;5572;49.540;11.932;2023-04-20T23:02:16;96226.25;;;7.94;100.00
11038;BME280;5572;49.540;11.932;2023-04-20T23:04:42;96219.16;;;8.08;100.00
11038;BME280;5572;49.540;11.932;2023-04-20T23:07:09;96230.72;;;8.09;100.00
11038;BME280;5572;49.540;11.932;2023-04-20T23:09:37;96230.56;;;8.29;100.00
11038;BME280;5572;49.540;11.932;2023-04-20T23:12:04;96235.81;;;8.10;100.00
11038;BME280;5572;49.540;11.932;2023-04-20T23:14:32;96226.59;;;8.21;100.00
11038;BME280;5572;49.540;11.932;2023-04-20T23:17:01;96243.97;;;8.34;100.00
11038;BME280;5572;49.540;11.932;2023-04-20T23:19:27;96256.53;;;8.10;100.00
11038;BME280;5572;49.540;11.932;2023-04-20T23:21:57;96252.00;;;8.05;100.00
11038;BME280;5572;49.540;11.932;2023-04-20T23:24:23;96257.41;;;8.00;100.00
11038;BME280;5572;49.540;11.932;2023-04-20T23:26:51;96243.47;;;8.32;100.00
11038;BME280;5572;49.540;11.932;2023-04-20T23:29:18;96260.81;;;8.16;100.00
11038;BME280;5572;49.540;11.932;2023-04-20T23:31:44;96247.88;;;8.23;100.00
11038;BME280;5572;49.540;11.932;2023-04-20T23:34:11;96250.88;;;8.16;100.00
11038;BME280;5572;49.540;11.932;2023-04-20T23:36:37;96251.41;;;8.18;100.00
11038;BME280;5572;49.540;11.932;2023-04-20T23:39:04;96246.19;;;8.27;100.00
11038;BME280;5572;49.540;11.932;2023-04-20T23:41:31;96249.22;;;8.20;100.00
11038;BME280;5572;49.540;11.932;2023-04-20T23:43:58;96258.50;;;7.99;100.00
11038;BME280;5572;49.540;11.932;2023-04-20T23:46:25;96248.31;;;7.96;100.00
11038;BME280;5572;49.540;11.932;2023-04-20T23:48:52;96248.47;;;8.10;100.00
11038;BME280;5572;49.540;11.932;2023-04-20T23:51:19;96257.63;;;8.09;100.00
11038;BME280;5572;49.540;11.932;2023-04-20T23:53:46;96255.91;;;7.84;100.00
11038;BME280;5572;49.540;11.932;2023-04-20T23:56:12;96252.97;;;8.19;100.00
11038;BME280;5572;49.540;11.932;2023-04-20T23:58:39;96259.47;;;8.13;100.00
